Main page
METAR-TAF:

METAR-TAF

Airports :

Ouagadougou Airport

Ouagadougou, Burkina Faso

latitude: 12-21N, longitude: 001-31W, elevation: 316 m

Current weather observation

The report was made 1 hour and 22 minutes ago, at 05:00 UTC
Wind 5 kt from the East
Temperature 24°C
Humidity 24%
Pressure 1011 hPa
Visibility 10 km or more
no clouds below 1500 m and no cumulonimbus

METAR: DFFD 080500Z 10005KT CAVOK 24/02 Q1011 NOSIG

Time: 06:22 (06:22 UTC)

Forecast

The report was made 1 hour and 22 minutes ago, at 05:00 UTC
Forecast valid from 08 at 06 UTC to 09 at 12 UTC
Wind 10 kt from the East
Visibility: 8000 m
Temporary
from 08 at 06 UTC to 08 at 11 UTC
Visibility: 3500 m
haze
Temporary
from 08 at 17 UTC to 08 at 21 UTC
Visibility: 3500 m
haze
Temporary
from 09 at 06 UTC to 09 at 10 UTC
Visibility: 4000 m
haze

TAF: DFFD 080500Z 0806/0912 09010KT 8000 NSC TEMPO 0806/0811 3500 HZ TEMPO 0817/0821 3500 HZ TEMPO 0906/0910 4000 HZ

Weather observations and forecasts of more than 4000 airports (METAR and TAF reports).

The available stations are represented by yellow and red dots on the map.

Hover mouse over dot to see the name of the station.

Then click to see weather observations and forecasts.

To change the map : click on the green buttons with a black cross to zoom in, on the green button with a dash to zoom out, or on the green arrows for adjacent maps.


METAR-TAF: